Time;durP1;ratioP1;P1;durP2;ratioP2;P2;SDS_P1;SDS_P2;PMS_P1;PMS_P2;Temp;Humidity;BMP_temperature;BMP_pressure;BME280_temperature;BME280_humidity;BME280_pressure;Samples;Min_cycle;Max_cycle;Signal;HPM_P1;HPM_P2
2023/09/09 00:01:26;;;;;;;8.13;7.33;;;18.50;99.90;;;;;;5085947;28;21025;-69
2023/09/09 00:03:54;;;;;;;9.20;7.47;;;18.60;99.90;;;;;;5085162;28;20749;-69
2023/09/09 00:06:22;;;;;;;12.00;8.33;;;18.60;99.90;;;;;;5085723;28;20623;-69
2023/09/09 00:08:50;;;;;;;9.20;7.43;;;18.60;99.90;;;;;;5085811;28;21054;-69
2023/09/09 00:11:18;;;;;;;8.90;8.00;;;18.60;99.90;;;;;;5084643;28;20631;-69
2023/09/09 00:13:46;;;;;;;10.03;8.87;;;18.60;99.90;;;;;;5085364;28;20779;-69
2023/09/09 00:16:12;;;;;;;10.10;8.23;;;18.60;99.90;;;;;;5086317;28;20635;-69
2023/09/09 00:18:39;;;;;;;10.63;8.10;;;18.60;99.90;;;;;;5084528;28;20644;-69
2023/09/09 00:21:06;;;;;;;8.67;7.33;;;18.50;99.90;;;;;;5085375;28;20620;-69
2023/09/09 00:23:33;;;;;;;8.20;7.43;;;18.60;99.90;;;;;;5084395;28;20654;-69
2023/09/09 00:26:01;;;;;;;11.30;8.20;;;18.60;99.90;;;;;;5086366;28;20635;-69
2023/09/09 00:28:28;;;;;;;7.37;6.67;;;18.50;99.90;;;;;;5084939;28;21196;-69
2023/09/09 00:30:54;;;;;;;7.57;6.83;;;18.50;99.90;;;;;;5084661;28;21000;-69
2023/09/09 00:33:21;;;;;;;9.33;7.43;;;18.40;99.90;;;;;;5084961;28;20617;-68
2023/09/09 00:35:48;;;;;;;8.70;7.90;;;18.50;99.90;;;;;;5086120;28;20631;-70
2023/09/09 00:38:15;;;;;;;6.60;6.00;;;18.50;99.90;;;;;;5086001;28;20625;-69
2023/09/09 00:40:45;;;;;;;8.07;6.43;;;18.50;99.90;;;;;;5084039;28;21192;-69
2023/09/09 00:43:13;;;;;;;8.73;7.57;;;18.50;99.90;;;;;;5084429;28;20655;-69
2023/09/09 00:45:40;;;;;;;8.67;7.60;;;18.50;99.90;;;;;;5084630;28;20632;-69
2023/09/09 00:48:08;;;;;;;7.47;6.77;;;18.50;99.90;;;;;;5084992;28;20738;-69
2023/09/09 00:50:35;;;;;;;9.60;7.33;;;18.50;99.90;;;;;;5085067;28;20675;-70
2023/09/09 00:53:02;;;;;;;7.87;6.93;;;18.50;99.90;;;;;;5086514;28;21175;-69
2023/09/09 00:55:30;;;;;;;8.73;7.83;;;18.50;99.90;;;;;;5089824;28;20628;-69
2023/09/09 00:57:57;;;;;;;7.80;7.00;;;18.50;99.90;;;;;;5087214;28;21023;-69
2023/09/09 01:00:25;;;;;;;9.20;7.00;;;18.50;99.90;;;;;;5088780;28;20633;-69
2023/09/09 01:02:52;;;;;;;8.23;7.53;;;18.50;99.90;;;;;;5088087;28;20624;-69
2023/09/09 01:05:18;;;;;;;8.70;7.80;;;18.50;99.90;;;;;;5088624;28;20716;-69
2023/09/09 01:07:46;;;;;;;7.40;6.63;;;18.50;99.90;;;;;;5088532;28;20639;-69
2023/09/09 01:10:14;;;;;;;8.53;7.47;;;18.50;99.90;;;;;;5088034;28;20698;-69
2023/09/09 01:12:42;;;;;;;8.03;7.33;;;18.40;99.90;;;;;;5088436;28;20638;-70
2023/09/09 01:15:11;;;;;;;9.33;7.67;;;18.40;99.90;;;;;;5089183;28;20646;-69
2023/09/09 01:17:41;;;;;;;8.87;7.67;;;18.40;99.90;;;;;;5088252;28;22055;-69
2023/09/09 01:20:14;;;;;;;8.47;7.23;;;18.40;99.90;;;;;;5087724;28;20631;-69
2023/09/09 01:22:44;;;;;;;10.23;6.83;;;18.40;99.90;;;;;;5088314;28;20731;-69
2023/09/09 01:25:13;;;;;;;8.67;7.57;;;18.30;99.90;;;;;;5088249;28;21051;-69
2023/09/09 01:27:41;;;;;;;8.03;7.27;;;18.30;99.90;;;;;;5089415;28;20636;-69
2023/09/09 01:30:11;;;;;;;8.10;7.30;;;18.30;99.90;;;;;;5087810;28;20628;-70
2023/09/09 01:32:38;;;;;;;7.60;6.50;;;18.30;99.90;;;;;;5088163;28;20631;-69
2023/09/09 01:35:08;;;;;;;9.07;8.17;;;18.30;99.90;;;;;;5088859;28;21087;-69
2023/09/09 01:37:36;;;;;;;8.40;7.50;;;18.30;99.90;;;;;;5087749;28;20737;-69
2023/09/09 01:40:10;;;;;;;9.77;6.70;;;18.20;99.90;;;;;;5088565;28;20658;-69
2023/09/09 01:42:38;;;;;;;12.73;7.87;;;18.20;99.90;;;;;;5086871;28;20654;-69
2023/09/09 01:45:07;;;;;;;7.30;6.60;;;18.20;99.90;;;;;;5088061;28;20656;-69
2023/09/09 01:47:34;;;;;;;10.60;7.17;;;18.10;99.90;;;;;;5087707;28;21319;-69
2023/09/09 01:50:01;;;;;;;8.70;7.33;;;18.10;99.90;;;;;;5088094;28;21191;-70
2023/09/09 01:52:28;;;;;;;11.87;7.90;;;18.10;99.90;;;;;;5087988;27;20624;-69
2023/09/09 01:54:55;;;;;;;8.13;7.37;;;18.00;99.90;;;;;;5088916;28;21277;-69
2023/09/09 01:57:26;;;;;;;7.90;7.10;;;17.90;99.90;;;;;;5087616;28;20636;-69
2023/09/09 01:59:53;;;;;;;9.03;7.20;;;17.90;99.90;;;;;;5086608;28;21600;-69
2023/09/09 02:02:20;;;;;;;8.20;6.77;;;17.90;99.90;;;;;;5088334;28;20906;-69
2023/09/09 02:04:47;;;;;;;10.57;8.67;;;17.90;99.90;;;;;;5087139;28;21216;-69
2023/09/09 02:07:13;;;;;;;8.67;7.27;;;17.90;99.90;;;;;;5088630;28;21189;-69
2023/09/09 02:09:41;;;;;;;7.17;6.43;;;17.90;99.90;;;;;;5087146;28;20644;-69
2023/09/09 02:12:09;;;;;;;8.50;6.47;;;17.90;99.90;;;;;;5087576;28;20785;-69
2023/09/09 02:14:37;;;;;;;7.67;6.90;;;17.80;99.90;;;;;;5087531;28;20632;-69
2023/09/09 02:17:05;;;;;;;8.47;7.67;;;17.80;99.90;;;;;;5087781;28;20727;-69
2023/09/09 02:19:32;;;;;;;9.80;8.27;;;17.80;99.90;;;;;;5087484;28;21368;-69
2023/09/09 02:22:00;;;;;;;10.50;7.20;;;17.80;99.90;;;;;;5087522;28;20694;-69
2023/09/09 02:24:29;;;;;;;7.70;6.90;;;17.80;99.90;;;;;;5086276;28;20652;-69
2023/09/09 02:26:56;;;;;;;9.50;6.83;;;17.80;99.90;;;;;;5087872;28;21211;-70
2023/09/09 02:29:24;;;;;;;12.77;8.33;;;17.80;99.90;;;;;;5086439;28;20644;-69
2023/09/09 02:31:53;;;;;;;11.70;7.50;;;17.60;99.90;;;;;;5086985;28;20636;-69
2023/09/09 02:34:21;;;;;;;10.07;6.93;;;17.70;99.90;;;;;;5087773;28;20713;-69
2023/09/09 02:37:13;;;;;;;8.40;6.20;;;17.70;99.90;;;;;;5086976;28;20651;-69
2023/09/09 02:39:41;;;;;;;8.87;7.10;;;17.80;99.90;;;;;;5087209;28;20628;-69
2023/09/09 02:42:12;;;;;;;8.13;7.33;;;17.80;99.90;;;;;;5085443;28;20629;-69
2023/09/09 02:44:40;;;;;;;7.60;6.80;;;17.80;99.90;;;;;;5087430;28;21167;-69
2023/09/09 02:47:12;;;;;;;8.10;7.30;;;17.80;99.90;;;;;;5086213;28;20628;-69
2023/09/09 02:49:39;;;;;;;9.47;7.20;;;17.80;99.90;;;;;;5086437;28;20670;-69
2023/09/09 02:52:07;;;;;;;8.50;7.60;;;17.70;99.90;;;;;;5087169;28;20631;-69
2023/09/09 02:54:35;;;;;;;9.50;6.90;;;17.70;99.90;;;;;;5087019;28;20623;-69
2023/09/09 02:57:03;;;;;;;9.07;7.63;;;17.70;99.90;;;;;;5086648;28;20643;-69
2023/09/09 02:59:30;;;;;;;8.43;7.13;;;17.70;99.90;;;;;;5085041;28;20623;-69
2023/09/09 03:01:57;;;;;;;9.07;7.53;;;17.70;99.90;;;;;;5085489;27;20628;-69
2023/09/09 03:04:25;;;;;;;8.73;7.50;;;17.60;99.90;;;;;;5087423;28;20793;-69
2023/09/09 03:06:52;;;;;;;7.37;6.67;;;17.70;99.90;;;;;;5087044;28;20631;-68
2023/09/09 03:09:20;;;;;;;8.20;7.50;;;17.60;99.90;;;;;;5085859;28;20646;-68
2023/09/09 03:11:47;;;;;;;8.27;7.47;;;17.60;99.90;;;;;;5085926;28;20671;-68
2023/09/09 03:14:14;;;;;;;8.97;8.07;;;17.70;99.90;;;;;;5085054;28;20624;-68
2023/09/09 03:16:40;;;;;;;8.10;7.30;;;17.70;99.90;;;;;;5085363;28;21212;-69
2023/09/09 03:19:07;;;;;;;10.00;7.93;;;17.70;99.90;;;;;;5085818;28;20984;-70
2023/09/09 03:21:35;;;;;;;8.63;7.67;;;17.70;99.90;;;;;;5087069;28;20998;-69
2023/09/09 03:24:02;;;;;;;9.30;7.83;;;17.70;99.90;;;;;;5084895;28;20779;-69
2023/09/09 03:26:32;;;;;;;7.43;6.70;;;17.70;99.90;;;;;;5085899;28;20683;-69
2023/09/09 03:28:59;;;;;;;13.03;8.30;;;17.70;99.90;;;;;;5086237;28;20636;-69
2023/09/09 03:31:25;;;;;;;10.10;9.10;;;17.70;99.90;;;;;;5085758;28;20621;-69
2023/09/09 03:33:52;;;;;;;7.90;7.10;;;17.60;99.90;;;;;;5086686;28;20636;-69
2023/09/09 03:36:19;;;;;;;19.43;7.93;;;17.50;99.90;;;;;;5085968;28;20631;-69
2023/09/09 03:38:47;;;;;;;9.93;8.90;;;17.50;99.90;;;;;;5085468;28;20631;-69
2023/09/09 03:41:14;;;;;;;9.43;7.67;;;17.50;99.90;;;;;;5084729;28;20995;-68
2023/09/09 03:43:41;;;;;;;7.90;7.20;;;17.50;99.90;;;;;;5086268;28;21008;-69
2023/09/09 03:46:07;;;;;;;7.10;6.27;;;17.50;99.90;;;;;;5085666;28;20661;-70
2023/09/09 03:48:34;;;;;;;7.93;7.10;;;17.50;99.90;;;;;;5085301;28;20626;-69
2023/09/09 03:51:02;;;;;;;8.90;8.00;;;17.50;99.90;;;;;;5085335;28;20635;-69
2023/09/09 03:53:30;;;;;;;9.47;8.07;;;17.50;99.90;;;;;;5086004;28;20753;-69
2023/09/09 03:56:00;;;;;;;8.13;7.33;;;17.50;99.90;;;;;;5086052;28;20640;-69
2023/09/09 03:58:26;;;;;;;9.10;8.17;;;17.50;99.90;;;;;;5084915;28;20643;-69
2023/09/09 04:01:05;;;;;;;10.90;8.87;;;17.50;99.90;;;;;;5085273;28;20743;-69
2023/09/09 04:03:41;;;;;;;9.47;8.60;;;17.50;99.90;;;;;;5083430;28;21930;-69
2023/09/09 04:06:13;;;;;;;11.27;9.20;;;17.50;99.90;;;;;;5085715;28;20664;-69
2023/09/09 04:08:42;;;;;;;13.20;10.17;;;17.50;99.90;;;;;;5086047;28;20722;-69
2023/09/09 04:11:10;;;;;;;9.50;8.60;;;17.40;99.90;;;;;;5085224;28;20621;-69
2023/09/09 04:13:40;;;;;;;9.50;8.33;;;17.30;99.90;;;;;;5084671;28;21279;-69
2023/09/09 04:16:07;;;;;;;9.53;8.53;;;17.20;99.90;;;;;;5084420;28;20617;-69
2023/09/09 04:18:34;;;;;;;9.10;8.30;;;17.20;99.90;;;;;;5085147;28;20642;-69
2023/09/09 04:21:00;;;;;;;9.50;8.60;;;17.20;99.90;;;;;;5085214;28;20624;-69
2023/09/09 04:23:27;;;;;;;8.67;7.70;;;17.20;99.90;;;;;;5085174;28;20627;-69
2023/09/09 04:25:54;;;;;;;11.10;10.00;;;17.10;99.90;;;;;;5084712;28;20651;-69
2023/09/09 04:28:22;;;;;;;10.33;8.70;;;17.10;99.90;;;;;;5081982;28;20616;-69
2023/09/09 04:30:49;;;;;;;9.57;8.70;;;17.20;99.90;;;;;;5082456;28;20626;-69
2023/09/09 04:33:16;;;;;;;10.93;9.07;;;17.20;99.90;;;;;;5082902;28;20720;-69
2023/09/09 04:35:43;;;;;;;12.30;9.13;;;17.10;99.90;;;;;;5083314;28;20622;-69
2023/09/09 04:38:10;;;;;;;10.20;8.53;;;17.10;99.90;;;;;;5083241;28;21090;-69
2023/09/09 04:40:39;;;;;;;9.70;8.80;;;17.10;99.90;;;;;;5082730;28;20629;-68
2023/09/09 04:43:06;;;;;;;8.90;7.63;;;17.10;99.90;;;;;;5084713;28;21250;-68
2023/09/09 04:45:34;;;;;;;9.90;8.90;;;17.10;99.90;;;;;;5080871;28;20694;-68
2023/09/09 04:48:01;;;;;;;8.87;7.90;;;17.10;99.90;;;;;;5084416;28;20745;-68
2023/09/09 04:50:28;;;;;;;9.90;8.47;;;17.00;99.90;;;;;;5084837;28;20628;-68
2023/09/09 04:52:55;;;;;;;10.03;9.07;;;17.00;99.90;;;;;;5084550;28;20632;-68
2023/09/09 04:55:21;;;;;;;10.67;9.00;;;17.00;99.90;;;;;;5084867;28;20627;-68
2023/09/09 04:57:48;;;;;;;11.17;9.83;;;17.00;99.90;;;;;;5084475;28;20632;-68
2023/09/09 05:00:15;;;;;;;11.20;9.60;;;17.00;99.90;;;;;;5083857;28;20635;-68
2023/09/09 05:02:43;;;;;;;10.07;8.90;;;17.00;99.90;;;;;;5084397;28;20634;-69
2023/09/09 05:05:10;;;;;;;15.63;9.30;;;17.00;99.90;;;;;;5085123;28;20648;-69
2023/09/09 05:07:37;;;;;;;9.77;8.70;;;17.00;99.90;;;;;;5083187;28;20638;-68
2023/09/09 05:10:05;;;;;;;9.93;8.93;;;17.00;99.90;;;;;;5084504;28;20640;-69
2023/09/09 05:12:32;;;;;;;8.87;8.07;;;17.00;99.90;;;;;;5085559;28;20638;-69
2023/09/09 05:14:59;;;;;;;10.13;8.83;;;17.00;99.90;;;;;;5084108;28;20630;-69
2023/09/09 05:17:26;;;;;;;13.70;9.20;;;16.90;99.90;;;;;;5083337;28;20627;-69
2023/09/09 05:19:54;;;;;;;9.87;8.20;;;16.80;99.90;;;;;;5084512;28;20991;-69
2023/09/09 05:22:21;;;;;;;9.27;8.37;;;16.80;99.90;;;;;;5083898;28;20640;-69
2023/09/09 05:24:48;;;;;;;9.70;8.70;;;16.90;99.90;;;;;;5079995;28;20999;-69
2023/09/09 05:27:14;;;;;;;10.80;9.80;;;16.90;99.90;;;;;;5083874;28;20638;-69
2023/09/09 05:29:43;;;;;;;11.50;9.10;;;16.80;99.90;;;;;;5084242;28;20737;-69
2023/09/09 05:32:09;;;;;;;10.80;8.67;;;16.70;99.90;;;;;;5081042;28;20631;-68
2023/09/09 05:34:36;;;;;;;10.00;9.00;;;16.90;99.90;;;;;;5076297;28;20631;-69
2023/09/09 05:37:05;;;;;;;13.00;10.47;;;16.90;99.90;;;;;;5083183;28;20633;-69
2023/09/09 05:39:34;;;;;;;10.57;9.50;;;16.90;99.90;;;;;;5082611;28;20671;-76
2023/09/09 05:42:01;;;;;;;11.77;9.67;;;16.90;99.90;;;;;;5082740;28;21002;-72
2023/09/09 05:44:28;;;;;;;10.77;8.70;;;17.00;99.90;;;;;;5086917;28;20635;-71
2023/09/09 05:46:55;;;;;;;9.63;8.63;;;17.10;99.90;;;;;;5087149;28;20664;-69
2023/09/09 05:49:22;;;;;;;11.60;9.43;;;17.20;99.90;;;;;;5085597;28;20635;-70
2023/09/09 05:51:49;;;;;;;9.20;8.13;;;17.30;99.90;;;;;;5081857;28;20624;-70
2023/09/09 05:54:17;;;;;;;9.53;8.23;;;17.30;99.90;;;;;;5080223;28;20632;-70
2023/09/09 05:56:44;;;;;;;10.97;9.87;;;17.40;99.90;;;;;;5082701;28;20689;-69
2023/09/09 05:59:11;;;;;;;9.47;8.57;;;17.60;99.90;;;;;;5084102;28;20717;-70
2023/09/09 06:01:38;;;;;;;9.40;8.50;;;17.70;99.90;;;;;;5081189;28;20640;-70
2023/09/09 06:04:05;;;;;;;11.43;10.23;;;17.80;99.90;;;;;;5086477;28;20635;-71
2023/09/09 06:06:32;;;;;;;10.27;9.23;;;17.90;99.90;;;;;;5084701;28;20668;-69
2023/09/09 06:08:59;;;;;;;12.37;10.40;;;18.00;99.90;;;;;;5081308;28;21217;-70
2023/09/09 06:11:27;;;;;;;9.60;8.23;;;18.00;99.90;;;;;;5082928;28;20642;-69
2023/09/09 06:13:55;;;;;;;13.00;10.30;;;18.10;99.90;;;;;;5081044;27;20839;-71
2023/09/09 06:16:23;;;;;;;11.63;9.60;;;18.20;99.90;;;;;;5085288;28;21566;-70
2023/09/09 06:18:49;;;;;;;9.77;8.83;;;18.30;99.90;;;;;;5084717;28;20642;-70
2023/09/09 06:21:16;;;;;;;11.57;9.27;;;18.30;99.90;;;;;;5086626;27;20721;-70
2023/09/09 06:23:46;;;;;;;8.97;7.93;;;18.40;99.90;;;;;;5085586;27;21739;-70
2023/09/09 06:26:13;;;;;;;12.80;9.33;;;18.50;99.90;;;;;;5085332;28;21154;-69
2023/09/09 06:28:41;;;;;;;11.57;9.47;;;18.60;99.90;;;;;;5087193;28;20639;-69
2023/09/09 06:31:07;;;;;;;9.07;8.17;;;18.70;99.90;;;;;;5085912;28;20633;-70
2023/09/09 06:33:35;;;;;;;9.80;8.80;;;18.70;99.90;;;;;;5085225;28;20625;-70
2023/09/09 06:36:02;;;;;;;9.70;8.77;;;18.90;99.90;;;;;;5086960;28;20770;-69
2023/09/09 06:38:28;;;;;;;9.77;8.80;;;19.00;99.90;;;;;;5084680;28;20662;-70
2023/09/09 06:40:55;;;;;;;11.10;9.93;;;19.00;99.90;;;;;;5084124;28;20644;-70
2023/09/09 06:43:22;;;;;;;8.93;7.87;;;19.10;99.90;;;;;;5085223;28;21814;-69
2023/09/09 06:45:52;;;;;;;11.83;8.67;;;19.20;99.90;;;;;;5086055;28;20663;-69
2023/09/09 06:48:19;;;;;;;8.53;7.73;;;19.30;99.90;;;;;;5085769;27;20625;-69
2023/09/09 06:50:46;;;;;;;8.40;7.60;;;19.40;99.90;;;;;;5086127;28;20631;-69
2023/09/09 06:53:13;;;;;;;11.43;9.30;;;19.60;99.90;;;;;;5086337;28;21108;-70
2023/09/09 06:55:41;;;;;;;10.67;9.10;;;19.60;99.90;;;;;;5086627;28;20629;-70
2023/09/09 06:58:08;;;;;;;10.60;9.50;;;19.60;99.90;;;;;;5086021;28;20969;-70
2023/09/09 07:00:34;;;;;;;9.50;8.60;;;19.70;99.90;;;;;;5085662;28;20617;-69
2023/09/09 07:03:04;;;;;;;11.20;8.93;;;19.80;99.90;;;;;;5085951;28;21147;-71
2023/09/09 07:05:32;;;;;;;9.27;8.47;;;19.90;99.90;;;;;;5085334;28;20656;-70
2023/09/09 07:07:58;;;;;;;10.17;8.73;;;20.00;99.90;;;;;;5086783;28;21199;-70
2023/09/09 07:10:30;;;;;;;9.40;8.37;;;20.10;99.90;;;;;;5086003;28;21475;-68
2023/09/09 07:12:57;;;;;;;11.60;8.37;;;20.30;99.90;;;;;;5085234;28;20649;-70
2023/09/09 07:15:24;;;;;;;9.00;8.13;;;20.50;99.90;;;;;;5084907;28;20638;-70
2023/09/09 07:17:50;;;;;;;11.00;7.97;;;20.50;99.90;;;;;;5084906;28;20630;-70
2023/09/09 07:20:19;;;;;;;7.63;6.90;;;20.70;99.90;;;;;;5083712;28;20743;-70
2023/09/09 07:22:47;;;;;;;9.17;7.97;;;20.80;99.90;;;;;;5085335;28;21214;-71
2023/09/09 07:25:13;;;;;;;9.53;7.23;;;21.00;99.90;;;;;;5085033;28;20667;-70
2023/09/09 07:27:40;;;;;;;15.03;9.50;;;21.30;99.90;;;;;;5081910;28;20630;-70
2023/09/09 07:30:10;;;;;;;11.30;10.10;;;21.40;99.90;;;;;;5083635;28;20628;-70
2023/09/09 07:32:37;;;;;;;10.80;9.40;;;21.40;99.90;;;;;;5083117;28;20724;-70
2023/09/09 07:35:04;;;;;;;10.60;9.50;;;21.50;99.90;;;;;;5083541;28;20639;-70
2023/09/09 07:37:33;;;;;;;9.23;8.23;;;21.50;99.90;;;;;;5084200;28;20628;-70
2023/09/09 07:39:59;;;;;;;9.60;8.53;;;21.70;99.90;;;;;;5082696;28;20976;-70
2023/09/09 07:42:26;;;;;;;9.67;8.70;;;21.80;99.90;;;;;;5084142;28;20631;-70
2023/09/09 07:44:53;;;;;;;8.90;7.83;;;21.80;99.90;;;;;;5084149;28;20972;-70
2023/09/09 07:47:21;;;;;;;9.80;8.63;;;21.80;99.90;;;;;;5083648;28;20659;-71
2023/09/09 07:49:47;;;;;;;9.63;8.60;;;21.90;99.90;;;;;;5082433;28;20631;-70
2023/09/09 07:52:14;;;;;;;9.50;7.80;;;22.10;99.90;;;;;;5083319;28;20625;-70
2023/09/09 07:54:42;;;;;;;9.67;8.67;;;22.20;99.90;;;;;;5080328;28;21245;-71
2023/09/09 07:57:09;;;;;;;11.13;9.10;;;22.20;99.90;;;;;;5083678;28;20628;-71
2023/09/09 07:59:47;;;;;;;9.03;8.23;;;22.30;99.90;;;;;;5082407;28;20726;-70
2023/09/09 08:02:14;;;;;;;10.27;9.27;;;22.30;99.90;;;;;;5081556;28;20637;-72
2023/09/09 08:04:41;;;;;;;11.37;9.40;;;22.30;99.80;;;;;;5080373;28;20729;-70
2023/09/09 08:07:08;;;;;;;9.07;8.17;;;22.40;99.90;;;;;;5080914;28;20649;-70
2023/09/09 08:09:35;;;;;;;8.97;8.17;;;22.50;99.90;;;;;;5082433;28;20636;-70
2023/09/09 08:15:11;;;;;;;9.07;7.70;;;22.80;99.90;;;;;;5083887;28;20624;-69
2023/09/09 08:17:40;;;;;;;8.23;7.53;;;23.00;98.90;;;;;;5084089;28;20657;-70
2023/09/09 08:20:09;;;;;;;8.70;7.90;;;23.30;98.10;;;;;;5089721;28;20638;-69
2023/09/09 08:22:36;;;;;;;8.80;7.90;;;23.20;98.50;;;;;;5085817;28;20628;-69
2023/09/09 08:25:03;;;;;;;7.70;7.00;;;23.20;99.00;;;;;;5085047;28;20625;-70
2023/09/09 08:27:31;;;;;;;8.27;7.57;;;23.30;98.90;;;;;;5086003;28;20795;-70
2023/09/09 08:29:58;;;;;;;8.73;7.93;;;23.60;98.60;;;;;;5083524;28;20624;-70
2023/09/09 08:32:25;;;;;;;8.57;7.80;;;23.70;97.50;;;;;;5083026;28;20988;-70
2023/09/09 08:34:52;;;;;;;8.80;8.00;;;23.90;98.10;;;;;;5085978;28;21435;-70
2023/09/09 08:37:23;;;;;;;9.07;8.20;;;23.90;98.20;;;;;;5084785;28;20623;-70
2023/09/09 08:40:03;;;;;;;9.10;7.00;;;23.90;97.90;;;;;;5084346;28;20639;-69
2023/09/09 08:43:01;;;;;;;9.30;8.40;;;24.00;97.90;;;;;;5085948;28;20627;-70
2023/09/09 08:45:35;;;;;;;8.80;8.00;;;24.10;97.90;;;;;;5086356;28;20641;-70
2023/09/09 08:48:06;;;;;;;8.47;6.87;;;24.30;97.50;;;;;;5083992;28;20629;-69
2023/09/09 08:50:37;;;;;;;8.03;7.33;;;24.30;96.70;;;;;;5083416;28;20633;-69
2023/09/09 08:53:06;;;;;;;8.13;7.33;;;24.30;96.30;;;;;;5083888;28;20732;-69
2023/09/09 08:55:56;;;;;;;8.47;7.70;;;24.30;95.80;;;;;;5086703;28;20640;-70
2023/09/09 08:58:25;;;;;;;7.60;6.90;;;24.40;94.80;;;;;;5085465;28;20636;-69
2023/09/09 09:00:53;;;;;;;9.33;7.67;;;24.60;94.80;;;;;;5084246;28;20627;-70
2023/09/09 09:03:21;;;;;;;7.60;6.77;;;24.70;95.60;;;;;;5083877;28;20712;-69
2023/09/09 09:05:51;;;;;;;7.70;7.00;;;24.70;95.70;;;;;;5082367;28;20638;-69
2023/09/09 09:08:18;;;;;;;7.73;7.00;;;24.70;95.50;;;;;;5083637;28;20730;-69
2023/09/09 09:10:50;;;;;;;8.33;7.47;;;24.70;95.30;;;;;;5084192;28;20639;-70
2023/09/09 09:13:20;;;;;;;7.97;7.27;;;25.00;94.70;;;;;;5086099;28;20633;-70
2023/09/09 09:15:48;;;;;;;7.23;6.53;;;24.90;94.10;;;;;;5088489;28;21242;-70
2023/09/09 09:18:15;;;;;;;7.93;6.80;;;25.00;94.80;;;;;;5089218;28;20726;-70
2023/09/09 09:20:42;;;;;;;8.17;7.37;;;25.00;94.30;;;;;;5081858;28;20627;-71
2023/09/09 09:23:13;;;;;;;8.70;7.80;;;25.10;94.50;;;;;;5086615;28;20627;-70
2023/09/09 09:25:42;;;;;;;7.77;6.97;;;25.20;94.00;;;;;;5088493;28;21213;-70
2023/09/09 09:28:09;;;;;;;7.87;7.17;;;25.20;92.50;;;;;;5087035;28;20691;-69
2023/09/09 09:30:36;;;;;;;7.33;6.63;;;25.40;93.60;;;;;;5086230;28;21560;-69
2023/09/09 09:33:05;;;;;;;8.43;7.73;;;25.40;93.50;;;;;;5087846;28;21210;-69
2023/09/09 09:35:34;;;;;;;7.50;6.87;;;25.50;93.60;;;;;;5087809;28;21214;-69
2023/09/09 09:38:03;;;;;;;8.23;7.50;;;25.60;93.30;;;;;;5087246;28;20620;-69
2023/09/09 09:40:31;;;;;;;7.83;6.70;;;25.70;93.40;;;;;;5086924;28;20628;-69
2023/09/09 09:42:58;;;;;;;8.37;7.57;;;25.80;93.00;;;;;;5086204;28;20637;-69
2023/09/09 09:45:26;;;;;;;7.23;6.50;;;25.90;93.50;;;;;;5086270;28;21067;-70
2023/09/09 09:47:54;;;;;;;7.87;7.17;;;26.00;93.50;;;;;;5085329;28;20695;-69
2023/09/09 09:50:28;;;;;;;9.00;8.07;;;26.00;92.50;;;;;;5086302;28;20623;-70
2023/09/09 09:52:59;;;;;;;7.47;6.73;;;26.00;92.00;;;;;;5085851;28;20628;-70
2023/09/09 09:55:26;;;;;;;8.53;7.50;;;26.10;92.20;;;;;;5087844;28;20631;-69
2023/09/09 09:57:55;;;;;;;8.40;7.60;;;26.10;92.50;;;;;;5086984;28;20633;-70
2023/09/09 10:00:23;;;;;;;9.30;8.40;;;26.20;92.60;;;;;;5087075;28;20633;-70
2023/09/09 10:02:52;;;;;;;8.40;7.20;;;26.30;91.70;;;;;;5087045;28;20628;-70
2023/09/09 10:05:24;;;;;;;7.50;6.80;;;26.30;92.60;;;;;;5088288;28;20627;-68
2023/09/09 10:07:53;;;;;;;7.83;7.10;;;26.50;92.40;;;;;;5085531;28;20648;-69
2023/09/09 10:10:22;;;;;;;8.13;7.43;;;26.60;92.60;;;;;;5086124;28;20644;-69
2023/09/09 10:12:54;;;;;;;7.97;7.20;;;26.60;91.90;;;;;;5087090;28;20782;-69
2023/09/09 10:15:21;;;;;;;7.57;6.97;;;26.50;91.30;;;;;;5087357;28;21052;-69
2023/09/09 10:17:51;;;;;;;8.90;6.70;;;26.70;91.60;;;;;;5087187;28;20629;-68
2023/09/09 10:20:19;;;;;;;8.63;7.53;;;26.70;91.60;;;;;;5086179;28;21186;-68
2023/09/09 10:22:49;;;;;;;7.50;6.83;;;26.90;90.90;;;;;;5085403;28;20627;-70
2023/09/09 10:25:20;;;;;;;8.20;7.40;;;27.00;91.30;;;;;;5085874;28;20643;-70
2023/09/09 10:27:49;;;;;;;8.00;7.20;;;27.00;91.40;;;;;;5085709;28;20657;-70
2023/09/09 10:30:18;;;;;;;7.60;7.00;;;27.00;90.60;;;;;;5084995;28;20620;-70
2023/09/09 10:32:46;;;;;;;8.20;7.60;;;26.90;89.60;;;;;;5086780;28;21587;-70
2023/09/09 10:35:15;;;;;;;7.27;6.57;;;26.90;90.30;;;;;;5085383;28;21259;-70
2023/09/09 10:37:43;;;;;;;8.30;7.40;;;27.20;88.90;;;;;;5085375;28;20620;-71
2023/09/09 10:40:13;;;;;;;7.90;7.10;;;27.40;87.10;;;;;;5081260;28;20639;-72
2023/09/09 10:42:42;;;;;;;8.70;6.77;;;27.40;86.60;;;;;;5084619;28;20615;-70
2023/09/09 10:45:28;;;;;;;7.10;6.50;;;27.40;87.90;;;;;;5086694;28;20624;-70
2023/09/09 10:47:57;;;;;;;7.50;6.87;;;27.50;87.60;;;;;;5086240;28;20655;-69
2023/09/09 10:50:38;;;;;;;7.77;7.07;;;27.60;87.30;;;;;;5084888;28;20647;-70
2023/09/09 10:53:14;;;;;;;6.10;5.50;;;27.60;88.10;;;;;;5085073;28;20639;-69
2023/09/09 10:55:43;;;;;;;7.50;6.80;;;27.50;87.90;;;;;;5085441;28;20633;-73
2023/09/09 10:58:10;;;;;;;7.43;6.73;;;27.70;86.30;;;;;;5086332;28;20616;-70
2023/09/09 11:00:39;;;;;;;7.20;6.50;;;27.80;85.00;;;;;;5086048;28;20671;-69
2023/09/09 11:03:10;;;;;;;7.03;6.43;;;27.70;85.80;;;;;;5085143;27;20623;-71
2023/09/09 11:05:58;;;;;;;8.57;6.50;;;27.70;84.40;;;;;;5084214;28;21552;-70
2023/09/09 11:08:32;;;;;;;7.20;6.60;;;27.90;85.80;;;;;;5083832;28;20648;-69
2023/09/09 11:11:12;;;;;;;7.93;6.70;;;27.90;85.10;;;;;;5085911;28;20747;-70
2023/09/09 11:13:53;;;;;;;5.90;5.50;;;27.70;82.00;;;;;;5086194;28;20889;-72
2023/09/09 11:16:32;;;;;;;7.10;6.43;;;27.70;86.00;;;;;;5085560;28;20625;-70
2023/09/09 11:19:01;;;;;;;8.23;5.97;;;27.80;85.30;;;;;;5085017;28;20752;-70
2023/09/09 11:21:30;;;;;;;7.07;6.47;;;28.00;84.30;;;;;;5085930;28;20673;-70
2023/09/09 11:23:57;;;;;;;19.33;5.80;;;28.20;82.50;;;;;;5085647;28;20797;-70
2023/09/09 11:26:25;;;;;;;7.57;6.20;;;28.30;82.10;;;;;;5086053;28;20674;-71
2023/09/09 11:28:54;;;;;;;6.80;6.20;;;28.30;82.80;;;;;;5085697;28;20662;-72
2023/09/09 11:31:25;;;;;;;6.40;5.90;;;28.40;81.80;;;;;;5083822;28;20629;-71
2023/09/09 11:33:56;;;;;;;7.20;6.50;;;28.50;81.40;;;;;;5084432;28;20647;-72
2023/09/09 11:36:23;;;;;;;8.60;7.07;;;28.30;80.00;;;;;;5084811;28;20640;-72
2023/09/09 11:38:50;;;;;;;8.40;6.13;;;28.50;81.90;;;;;;5085534;28;20631;-72
2023/09/09 11:41:21;;;;;;;6.33;5.67;;;28.40;81.00;;;;;;5085922;28;20798;-72
2023/09/09 11:44:01;;;;;;;7.20;5.40;;;28.50;80.30;;;;;;5085074;28;20624;-72
2023/09/09 11:46:31;;;;;;;6.10;5.37;;;28.50;79.30;;;;;;5085713;28;20954;-72
2023/09/09 11:48:58;;;;;;;5.90;5.40;;;28.60;78.00;;;;;;5084551;28;20662;-72
2023/09/09 11:51:25;;;;;;;6.10;5.67;;;28.60;79.30;;;;;;5084342;28;20624;-72
2023/09/09 11:53:52;;;;;;;7.67;5.63;;;28.50;78.90;;;;;;5084195;28;20633;-71
2023/09/09 11:56:21;;;;;;;6.87;4.93;;;28.60;77.70;;;;;;5084608;28;20630;-71
2023/09/09 11:58:49;;;;;;;5.23;4.73;;;28.60;77.40;;;;;;5082739;28;20627;-71
2023/09/09 12:01:19;;;;;;;7.37;5.10;;;28.40;78.10;;;;;;5084103;28;20640;-71
2023/09/09 12:03:48;;;;;;;5.83;5.33;;;28.30;75.70;;;;;;5085153;28;20636;-72
2023/09/09 12:06:16;;;;;;;6.27;5.67;;;28.50;77.20;;;;;;5084274;28;20636;-71
2023/09/09 12:08:43;;;;;;;6.77;6.17;;;28.50;77.90;;;;;;5084074;28;21693;-71
2023/09/09 12:11:13;;;;;;;5.87;4.97;;;28.50;77.00;;;;;;5085444;28;20628;-69
2023/09/09 12:13:41;;;;;;;7.30;4.97;;;28.30;78.40;;;;;;5085348;28;20625;-69
2023/09/09 12:16:09;;;;;;;5.97;5.33;;;28.40;76.10;;;;;;5085340;28;20627;-69
2023/09/09 12:18:38;;;;;;;6.30;5.70;;;28.50;74.20;;;;;;5085990;28;20628;-69
2023/09/09 12:21:07;;;;;;;5.00;4.60;;;28.40;74.90;;;;;;5084848;28;20638;-69
2023/09/09 12:23:35;;;;;;;5.53;4.93;;;28.20;74.30;;;;;;5085102;28;20751;-69
2023/09/09 12:26:12;;;;;;;9.30;5.50;;;28.30;75.70;;;;;;5084357;28;20631;-69
2023/09/09 12:28:39;;;;;;;5.70;4.97;;;28.40;75.70;;;;;;5086455;28;20663;-69
2023/09/09 12:31:06;;;;;;;6.63;5.80;;;28.30;75.20;;;;;;5084532;28;20620;-69
2023/09/09 12:33:45;;;;;;;7.90;4.60;;;28.40;76.70;;;;;;5086816;28;20660;-69
2023/09/09 12:36:16;;;;;;;5.40;4.90;;;28.30;76.30;;;;;;5084922;28;20634;-69
2023/09/09 12:38:44;;;;;;;11.83;5.40;;;28.20;78.50;;;;;;5085418;28;20621;-69
2023/09/09 12:41:12;;;;;;;5.33;4.67;;;28.20;77.90;;;;;;5085124;28;21199;-69
2023/09/09 12:43:39;;;;;;;5.30;4.80;;;28.20;75.50;;;;;;5085672;28;20625;-69
2023/09/09 12:46:07;;;;;;;5.73;4.90;;;28.20;76.10;;;;;;5085276;28;20628;-69
2023/09/09 12:48:54;;;;;;;7.83;4.50;;;28.40;74.70;;;;;;5085632;28;21033;-69
2023/09/09 12:51:22;;;;;;;5.87;5.27;;;28.50;74.70;;;;;;5088821;28;21214;-69
2023/09/09 12:53:49;;;;;;;5.17;4.67;;;28.60;75.20;;;;;;5088944;28;20635;-68
2023/09/09 12:56:16;;;;;;;4.33;3.93;;;28.60;75.80;;;;;;5090171;28;20632;-69